createdAt,value
2023-08-12T00:01:18.800Z,1.65
2023-08-12T00:03:47.448Z,2.45
2023-08-12T00:06:15.978Z,1.50
2023-08-12T00:08:44.045Z,2.10
2023-08-12T00:11:12.485Z,2.15
2023-08-12T00:13:41.079Z,2.78
2023-08-12T00:16:09.340Z,1.90
2023-08-12T00:18:37.958Z,2.70
2023-08-12T00:21:08.864Z,2.37
2023-08-12T00:23:41.013Z,1.85
2023-08-12T00:26:10.395Z,2.03
2023-08-12T00:28:38.630Z,1.65
2023-08-12T00:31:06.712Z,2.08
2023-08-12T00:33:35.429Z,1.55
2023-08-12T00:36:03.679Z,1.65
2023-08-12T00:38:32.408Z,1.52
2023-08-12T00:41:01.420Z,1.80
2023-08-12T00:43:29.858Z,1.92
2023-08-12T00:45:58.586Z,1.55
2023-08-12T00:48:27.185Z,1.10
2023-08-12T00:50:55.294Z,1.42
2023-08-12T00:53:23.910Z,2.12
2023-08-12T00:55:52.762Z,2.53
2023-08-12T00:58:20.922Z,1.48
2023-08-12T01:00:49.112Z,2.10
2023-08-12T01:03:18.109Z,1.17
2023-08-12T01:05:47.824Z,2.03
2023-08-12T01:08:15.887Z,1.12
2023-08-12T01:10:53.703Z,1.67
2023-08-12T01:13:38.372Z,3.20
2023-08-12T01:16:09.430Z,2.35
2023-08-12T01:18:39.629Z,2.30
2023-08-12T01:21:14.037Z,1.90
2023-08-12T01:23:42.674Z,1.73
2023-08-12T01:26:11.297Z,2.12
2023-08-12T01:28:39.509Z,1.75
2023-08-12T01:31:14.856Z,1.55
2023-08-12T01:34:13.854Z,1.02
2023-08-12T01:36:47.764Z,1.55
2023-08-12T01:39:17.985Z,1.60
2023-08-12T01:41:46.981Z,2.50
2023-08-12T01:44:15.624Z,1.77
2023-08-12T01:46:45.816Z,1.67
2023-08-12T01:49:13.982Z,2.15
2023-08-12T01:51:42.435Z,2.17
2023-08-12T01:54:10.645Z,2.20
2023-08-12T01:56:38.907Z,2.12
2023-08-12T01:59:08.269Z,1.52
2023-08-12T02:01:36.653Z,1.67
2023-08-12T02:04:05.410Z,1.75
2023-08-12T02:06:33.505Z,2.67
2023-08-12T02:09:01.726Z,1.92
2023-08-12T02:11:30.179Z,2.08
2023-08-12T02:13:58.379Z,1.45
2023-08-12T02:16:26.628Z,1.92
2023-08-12T02:18:55.046Z,2.72
2023-08-12T02:21:23.312Z,2.87
2023-08-12T02:23:51.582Z,2.37
2023-08-12T02:26:20.287Z,1.90
2023-08-12T02:28:49.603Z,1.73
2023-08-12T02:31:18.324Z,2.00
2023-08-12T02:33:46.804Z,1.90
2023-08-12T02:36:14.951Z,1.95
2023-08-12T02:38:57.603Z,1.55
2023-08-12T02:41:25.770Z,1.45
2023-08-12T02:43:53.794Z,2.05
2023-08-12T02:46:22.836Z,1.58
2023-08-12T02:48:50.895Z,3.50
2023-08-12T02:51:18.931Z,1.23
2023-08-12T02:53:47.615Z,1.67
2023-08-12T02:56:15.726Z,1.67
2023-08-12T02:58:43.876Z,1.80
2023-08-12T03:01:12.566Z,1.50
2023-08-12T03:03:40.980Z,2.03
2023-08-12T03:06:09.207Z,1.90
2023-08-12T03:08:37.844Z,1.52
2023-08-12T03:11:06.367Z,1.85
2023-08-12T03:13:34.592Z,1.67
2023-08-12T03:16:04.015Z,1.33
2023-08-12T03:18:32.709Z,1.10
2023-08-12T03:21:00.937Z,1.23
2023-08-12T03:23:29.550Z,1.30
2023-08-12T03:25:58.651Z,1.52
2023-08-12T03:28:26.714Z,1.23
2023-08-12T03:30:55.649Z,1.15
2023-08-12T03:33:24.217Z,1.40
2023-08-12T03:35:52.868Z,1.45
2023-08-12T03:38:21.318Z,2.17
2023-08-12T03:40:50.818Z,1.83
2023-08-12T03:43:18.981Z,2.17
2023-08-12T03:45:48.585Z,2.70
2023-08-12T03:48:17.049Z,1.25
2023-08-12T03:50:46.716Z,1.77
2023-08-12T03:53:15.390Z,1.95
2023-08-12T03:55:44.189Z,1.60
2023-08-12T03:58:12.917Z,1.85
2023-08-12T04:00:44.716Z,1.30
2023-08-12T04:03:14.410Z,2.83
2023-08-12T04:05:53.812Z,5.18
2023-08-12T04:08:23.741Z,2.12
2023-08-12T04:10:52.514Z,2.17
2023-08-12T04:13:20.825Z,4.18
2023-08-12T04:15:54.451Z,2.00
2023-08-12T04:18:23.287Z,3.58
2023-08-12T04:20:53.213Z,3.00
2023-08-12T04:23:21.599Z,2.58
2023-08-12T04:25:50.752Z,1.92
2023-08-12T04:28:19.703Z,1.87
2023-08-12T04:30:54.085Z,2.42
2023-08-12T04:33:23.712Z,5.72
2023-08-12T04:35:54.236Z,3.22
2023-08-12T04:38:24.085Z,5.87
2023-08-12T04:40:55.203Z,8.55
2023-08-12T04:43:23.812Z,2.08
2023-08-12T04:45:52.179Z,1.90
2023-08-12T04:48:22.214Z,2.10
2023-08-12T04:50:50.668Z,1.65
2023-08-12T04:53:19.003Z,2.50
2023-08-12T04:55:51.912Z,1.17
2023-08-12T04:58:20.556Z,1.23
2023-08-12T05:00:49.354Z,1.20
2023-08-12T05:03:18.926Z,1.83
2023-08-12T05:05:53.732Z,1.50
2023-08-12T05:10:50.929Z,1.27
2023-08-12T05:13:19.309Z,1.83
2023-08-12T05:15:48.914Z,5.32
2023-08-12T05:18:18.219Z,1.37
2023-08-12T05:20:47.443Z,2.03
2023-08-12T05:23:16.094Z,1.73
2023-08-12T05:25:44.803Z,2.03
2023-08-12T05:28:12.971Z,5.22
2023-08-12T05:30:41.300Z,1.87
2023-08-12T05:33:09.889Z,2.53
2023-08-12T05:35:38.123Z,1.30
2023-08-12T05:38:06.237Z,1.33
2023-08-12T05:40:34.642Z,2.12
2023-08-12T05:43:03.622Z,1.58
2023-08-12T05:45:31.885Z,1.48
2023-08-12T05:48:00.293Z,1.95
2023-08-12T05:50:28.540Z,1.70
2023-08-12T05:52:56.982Z,1.40
2023-08-12T05:55:25.362Z,2.45
2023-08-12T05:57:53.490Z,1.75
2023-08-12T06:00:21.698Z,1.15
2023-08-12T06:02:52.673Z,1.65
2023-08-12T06:05:21.385Z,2.00
2023-08-12T06:07:50.025Z,2.30
2023-08-12T06:10:18.148Z,1.92
2023-08-12T06:12:47.356Z,2.28
2023-08-12T06:15:15.982Z,2.33
2023-08-12T06:17:44.207Z,2.20
2023-08-12T06:20:13.018Z,3.30
2023-08-12T06:22:41.547Z,2.60
2023-08-12T06:25:09.911Z,2.78
2023-08-12T06:27:38.286Z,1.67
2023-08-12T06:30:07.501Z,2.80
2023-08-12T06:32:37.016Z,4.95
2023-08-12T06:35:05.921Z,2.10
2023-08-12T06:37:34.480Z,2.05
2023-08-12T06:40:02.673Z,2.00
2023-08-12T06:42:31.350Z,2.85
2023-08-12T06:45:01.080Z,3.03
2023-08-12T06:47:30.927Z,1.70
2023-08-12T06:49:59.701Z,5.75
2023-08-12T06:52:27.846Z,1.87
2023-08-12T06:54:55.963Z,1.60
2023-08-12T06:57:24.500Z,1.85
2023-08-12T06:59:52.897Z,2.30
2023-08-12T07:02:20.928Z,1.40
2023-08-12T07:04:49.460Z,1.83
2023-08-12T07:07:17.612Z,1.85
2023-08-12T07:09:45.677Z,1.75
2023-08-12T07:12:14.303Z,2.83
2023-08-12T07:14:43.339Z,1.90
2023-08-12T07:17:11.486Z,1.90
2023-08-12T07:19:39.858Z,2.53
2023-08-12T07:22:07.959Z,1.55
2023-08-12T07:24:36.374Z,2.03
2023-08-12T07:27:07.762Z,1.58
2023-08-12T07:29:36.096Z,1.95
2023-08-12T07:32:04.965Z,1.20
2023-08-12T07:34:33.250Z,1.67
2023-08-12T07:37:01.429Z,1.27
2023-08-12T07:39:29.866Z,5.80
2023-08-12T07:41:58.024Z,2.62
2023-08-12T07:44:26.341Z,1.60
2023-08-12T07:46:54.908Z,1.23
2023-08-12T07:49:26.232Z,2.05
2023-08-12T07:51:54.603Z,2.78
2023-08-12T07:54:22.706Z,2.65
2023-08-12T07:56:51.340Z,1.85
2023-08-12T07:59:19.823Z,1.95
2023-08-12T08:01:48.409Z,3.37
2023-08-12T08:04:16.867Z,1.70
2023-08-12T08:06:44.887Z,2.03
2023-08-12T08:09:15.928Z,2.20
2023-08-12T08:11:44.310Z,1.92
2023-08-12T08:14:12.450Z,2.03
2023-08-12T08:16:42.916Z,2.65
2023-08-12T08:19:13.398Z,1.58
2023-08-12T08:21:42.618Z,2.00
2023-08-12T08:24:12.547Z,2.25
2023-08-12T08:26:44.002Z,1.73
2023-08-12T08:29:12.171Z,1.40
2023-08-12T08:31:40.860Z,2.42
2023-08-12T08:34:09.210Z,4.20
2023-08-12T08:36:37.480Z,1.60
2023-08-12T08:39:05.907Z,1.48
2023-08-12T08:41:40.644Z,1.70
2023-08-12T08:44:10.025Z,1.60
2023-08-12T08:46:38.406Z,1.98
2023-08-12T08:49:08.048Z,2.42
2023-08-12T08:51:36.700Z,2.75
2023-08-12T08:54:08.041Z,2.58
2023-08-12T08:56:44.747Z,2.00
2023-08-12T08:59:16.624Z,2.33
2023-08-12T09:01:48.412Z,2.33
2023-08-12T09:04:17.767Z,1.73
2023-08-12T09:06:46.812Z,1.60
2023-08-12T09:09:17.860Z,2.42
2023-08-12T09:11:46.785Z,1.83
2023-08-12T09:14:15.327Z,1.92
2023-08-12T09:16:43.534Z,2.12
2023-08-12T09:19:11.995Z,1.83
2023-08-12T09:21:40.247Z,1.50
2023-08-12T09:24:09.561Z,1.80
2023-08-12T09:26:37.949Z,1.60
2023-08-12T09:29:06.141Z,1.33
2023-08-12T09:31:34.622Z,1.65
2023-08-12T09:34:10.003Z,2.20
2023-08-12T09:36:38.347Z,2.53
2023-08-12T09:39:10.185Z,1.75
2023-08-12T09:41:40.220Z,1.98
2023-08-12T09:44:09.980Z,2.33
2023-08-12T09:46:39.740Z,2.75
2023-08-12T09:49:08.453Z,1.83
2023-08-12T09:51:38.184Z,4.12
2023-08-12T09:54:06.399Z,1.50
2023-08-12T09:56:37.859Z,2.25
2023-08-12T09:59:10.750Z,1.90
2023-08-12T10:01:39.822Z,2.45
2023-08-12T10:04:14.296Z,2.03
2023-08-12T10:09:12.268Z,1.60
2023-08-12T10:11:41.043Z,1.50
2023-08-12T10:14:10.440Z,2.53
2023-08-12T10:16:39.537Z,2.08
2023-08-12T10:19:07.758Z,1.92
2023-08-12T10:21:36.154Z,2.30
2023-08-12T10:24:06.302Z,1.92
2023-08-12T10:26:34.671Z,1.73
2023-08-12T10:29:03.778Z,1.70
2023-08-12T10:31:32.343Z,1.75
2023-08-12T10:34:00.808Z,1.35
2023-08-12T10:36:29.188Z,2.40
2023-08-12T10:38:57.937Z,1.67
2023-08-12T10:41:26.429Z,1.45
2023-08-12T10:43:55.895Z,2.00
2023-08-12T10:46:45.754Z,2.30
2023-08-12T10:49:14.113Z,1.77
2023-08-12T10:51:46.883Z,1.70
2023-08-12T10:54:17.291Z,2.33
2023-08-12T10:57:04.316Z,1.70
2023-08-12T10:59:47.749Z,1.42
2023-08-12T11:02:30.548Z,1.20
2023-08-12T11:05:04.017Z,1.67
2023-08-12T11:07:59.634Z,3.72
2023-08-12T11:10:34.033Z,1.62
2023-08-12T11:13:04.852Z,1.73
2023-08-12T11:15:38.132Z,2.17
2023-08-12T11:18:11.462Z,2.03
2023-08-12T11:20:40.198Z,3.83
2023-08-12T11:23:09.907Z,2.42
2023-08-12T11:25:40.609Z,3.87
2023-08-12T11:28:09.656Z,1.85
2023-08-12T11:30:37.984Z,3.42
2023-08-12T11:33:06.556Z,2.50
2023-08-12T11:35:35.815Z,2.10
2023-08-12T11:38:05.994Z,1.80
2023-08-12T11:40:35.782Z,2.20
2023-08-12T11:43:07.147Z,1.98
2023-08-12T11:45:35.799Z,2.08
2023-08-12T11:48:06.047Z,1.85
2023-08-12T11:50:34.675Z,1.37
2023-08-12T11:53:03.265Z,1.98
2023-08-12T11:55:31.689Z,2.08
2023-08-12T11:57:59.869Z,1.70
2023-08-12T12:00:28.571Z,1.50
2023-08-12T12:02:57.786Z,1.80
2023-08-12T12:05:33.155Z,1.52
2023-08-12T12:08:01.815Z,1.75
2023-08-12T12:10:34.812Z,2.08
2023-08-12T12:13:05.639Z,1.60
2023-08-12T12:15:42.236Z,3.50
2023-08-12T12:18:14.416Z,2.65
2023-08-12T12:20:58.358Z,1.83
2023-08-12T12:23:30.559Z,1.80
2023-08-12T12:26:03.240Z,1.67
2023-08-12T12:28:32.163Z,1.90
2023-08-12T12:31:00.619Z,1.62
2023-08-12T12:33:28.798Z,1.40
2023-08-12T12:36:00.371Z,2.12
2023-08-12T12:38:30.117Z,1.80
2023-08-12T12:40:58.769Z,1.50
2023-08-12T12:43:26.928Z,1.67
2023-08-12T12:45:55.179Z,2.62
2023-08-12T12:48:23.854Z,6.47
2023-08-12T12:50:52.032Z,1.17
2023-08-12T12:53:20.222Z,1.85
2023-08-12T12:55:49.206Z,1.67
2023-08-12T12:58:17.637Z,2.25
2023-08-12T13:00:45.765Z,2.03
2023-08-12T13:03:14.351Z,3.10
2023-08-12T13:05:42.426Z,2.87
2023-08-12T13:08:10.509Z,1.85
2023-08-12T13:10:39.141Z,2.15
2023-08-12T13:13:07.236Z,2.92
2023-08-12T13:15:35.921Z,2.05
2023-08-12T13:18:04.673Z,3.15
2023-08-12T13:20:32.746Z,2.72
2023-08-12T13:23:01.020Z,1.75
2023-08-12T13:25:34.647Z,1.42
2023-08-12T13:28:04.654Z,1.47
2023-08-12T13:30:33.123Z,2.42
2023-08-12T13:33:02.145Z,1.90
2023-08-12T13:35:30.493Z,1.95
2023-08-12T13:37:58.987Z,2.65
2023-08-12T13:40:27.564Z,1.50
2023-08-12T13:42:55.744Z,1.80
2023-08-12T13:45:26.340Z,1.60
2023-08-12T13:47:54.638Z,3.62
2023-08-12T13:50:23.018Z,1.83
2023-08-12T13:52:51.688Z,1.48
2023-08-12T13:55:20.140Z,2.03
2023-08-12T13:57:48.212Z,1.67
2023-08-12T14:00:16.942Z,1.40
2023-08-12T14:02:45.678Z,1.80
2023-08-12T14:05:14.060Z,1.60
2023-08-12T14:07:42.460Z,1.37
2023-08-12T14:10:11.059Z,1.87
2023-08-12T14:12:39.535Z,1.30
2023-08-12T14:15:08.193Z,1.85
2023-08-12T14:17:36.708Z,1.37
2023-08-12T14:20:08.902Z,1.70
2023-08-12T14:22:37.592Z,1.12
2023-08-12T14:25:06.608Z,1.48
2023-08-12T14:27:34.881Z,2.72
2023-08-12T14:30:04.332Z,2.00
2023-08-12T14:32:32.846Z,1.60
2023-08-12T14:35:00.972Z,1.85
2023-08-12T14:37:29.580Z,1.80
2023-08-12T14:39:58.075Z,1.65
2023-08-12T14:42:26.357Z,2.15
2023-08-12T14:44:55.013Z,1.62
2023-08-12T14:47:23.207Z,2.47
2023-08-12T14:49:53.378Z,2.67
2023-08-12T14:52:21.959Z,1.50
2023-08-12T14:54:50.364Z,3.17
2023-08-12T14:57:18.473Z,1.40
2023-08-12T14:59:51.681Z,2.30
2023-08-12T15:02:23.894Z,1.45
2023-08-12T15:04:52.605Z,1.65
2023-08-12T15:07:22.366Z,1.92
2023-08-12T15:09:52.412Z,1.67
2023-08-12T15:12:21.514Z,1.52
2023-08-12T15:14:49.783Z,1.52
2023-08-12T15:17:17.909Z,1.58
2023-08-12T15:19:46.403Z,1.62
2023-08-12T15:22:15.469Z,1.35
2023-08-12T15:24:43.500Z,2.08
2023-08-12T15:27:12.160Z,1.90
2023-08-12T15:29:40.897Z,1.65
2023-08-12T15:32:08.926Z,2.05
2023-08-12T15:34:37.269Z,2.53
2023-08-12T15:37:05.582Z,1.83
2023-08-12T15:39:34.795Z,1.85
2023-08-12T15:42:03.558Z,1.65
2023-08-12T15:44:31.907Z,1.62
2023-08-12T15:47:00.052Z,2.37
2023-08-12T15:49:33.330Z,1.65
2023-08-12T15:52:02.544Z,1.62
2023-08-12T15:54:30.954Z,3.92
2023-08-12T15:56:59.023Z,2.08
2023-08-12T15:59:27.198Z,1.37
2023-08-12T16:01:55.662Z,1.90
2023-08-12T16:04:24.190Z,4.40
2023-08-12T16:06:52.624Z,3.45
2023-08-12T16:09:23.611Z,6.30
2023-08-12T16:11:52.622Z,2.37
2023-08-12T16:14:20.777Z,2.08
2023-08-12T16:16:48.985Z,2.10
2023-08-12T16:19:17.409Z,2.83
2023-08-12T16:21:45.603Z,2.17
2023-08-12T16:24:13.742Z,2.00
2023-08-12T16:26:42.126Z,2.10
2023-08-12T16:29:10.290Z,4.43
2023-08-12T16:31:40.402Z,2.22
2023-08-12T16:34:09.365Z,4.28
2023-08-12T16:36:37.896Z,2.03
2023-08-12T16:39:07.739Z,1.60
2023-08-12T16:41:36.433Z,1.60
2023-08-12T16:44:05.334Z,1.95
2023-08-12T16:46:33.513Z,1.67
2023-08-12T16:49:01.946Z,2.20
2023-08-12T16:51:29.963Z,1.90
2023-08-12T16:53:58.104Z,1.30
2023-08-12T16:56:26.719Z,1.45
2023-08-12T16:58:54.914Z,1.58
2023-08-12T17:01:26.062Z,1.92
2023-08-12T17:03:54.577Z,1.60
2023-08-12T17:06:23.340Z,2.20
2023-08-12T17:08:51.567Z,2.75
2023-08-12T17:11:20.887Z,1.95
2023-08-12T17:13:49.100Z,1.98
2023-08-12T17:16:17.220Z,2.85
2023-08-12T17:18:45.676Z,2.40
2023-08-12T17:21:13.927Z,1.73
2023-08-12T17:23:42.166Z,4.57
2023-08-12T17:26:10.577Z,2.67
2023-08-12T17:28:38.822Z,2.05
2023-08-12T17:31:07.328Z,2.35
2023-08-12T17:33:35.882Z,3.00
2023-08-12T17:36:04.483Z,2.45
2023-08-12T17:38:32.603Z,2.42
2023-08-12T17:41:03.525Z,2.20
2023-08-12T17:43:31.723Z,2.72
2023-08-12T17:46:00.055Z,3.90
2023-08-12T17:48:28.936Z,3.17
2023-08-12T17:50:57.190Z,3.58
2023-08-12T17:53:25.324Z,6.47
2023-08-12T17:55:53.752Z,13.40
2023-08-12T17:58:21.946Z,27.17
2023-08-12T18:00:50.085Z,28.95
2023-08-12T18:03:18.756Z,26.25
2023-08-12T18:05:47.493Z,11.15
2023-08-12T18:08:15.612Z,9.85
2023-08-12T18:10:44.165Z,11.02
2023-08-12T18:13:12.637Z,9.00
2023-08-12T18:15:40.729Z,7.47
2023-08-12T18:18:09.313Z,7.82
2023-08-12T18:20:37.734Z,5.45
2023-08-12T18:23:06.051Z,4.03
2023-08-12T18:25:34.488Z,3.20
2023-08-12T18:28:02.707Z,3.17
2023-08-12T18:30:31.948Z,4.62
2023-08-12T18:33:04.205Z,5.53
2023-08-12T18:35:33.386Z,6.22
2023-08-12T18:38:02.289Z,8.65
2023-08-12T18:40:33.361Z,6.53
2023-08-12T18:43:02.167Z,3.37
2023-08-12T18:45:30.368Z,2.20
2023-08-12T18:47:58.690Z,3.67
2023-08-12T18:50:27.552Z,6.45
2023-08-12T18:52:56.056Z,23.75
2023-08-12T18:55:24.420Z,24.85
2023-08-12T18:57:53.076Z,19.00
2023-08-12T19:00:21.983Z,13.48
2023-08-12T19:02:51.211Z,4.68
2023-08-12T19:05:19.996Z,3.90
2023-08-12T19:07:48.131Z,5.18
2023-08-12T19:10:16.372Z,7.20
2023-08-12T19:12:45.024Z,7.37
2023-08-12T19:15:13.092Z,3.75
2023-08-12T19:17:41.193Z,2.65
2023-08-12T19:20:11.095Z,2.97
2023-08-12T19:22:39.367Z,2.90
2023-08-12T19:25:07.905Z,3.90
2023-08-12T19:27:36.502Z,3.75
2023-08-12T19:30:05.219Z,2.33
2023-08-12T19:32:55.678Z,4.10
2023-08-12T19:35:24.272Z,3.72
2023-08-12T19:37:56.284Z,3.30
2023-08-12T19:40:24.923Z,3.95
2023-08-12T19:42:53.743Z,3.10
2023-08-12T19:45:21.958Z,1.92
2023-08-12T19:47:50.413Z,2.05
2023-08-12T19:50:18.486Z,2.92
2023-08-12T19:52:46.617Z,2.20
2023-08-12T19:55:15.232Z,2.37
2023-08-12T19:57:43.526Z,2.08
2023-08-12T20:00:12.237Z,3.55
2023-08-12T20:02:42.701Z,1.27
2023-08-12T20:05:19.116Z,2.10
2023-08-12T20:07:49.361Z,2.35
2023-08-12T20:10:20.047Z,4.93
2023-08-12T20:12:48.494Z,1.85
2023-08-12T20:15:17.353Z,1.85
2023-08-12T20:17:45.819Z,2.55
2023-08-12T20:20:18.536Z,2.47
2023-08-12T20:23:03.198Z,2.47
2023-08-12T20:25:37.161Z,4.68
2023-08-12T20:28:08.652Z,1.87
2023-08-12T20:30:37.659Z,3.42
2023-08-12T20:33:06.537Z,2.00
2023-08-12T20:35:34.839Z,1.50
2023-08-12T20:38:03.187Z,1.70
2023-08-12T20:40:31.569Z,1.40
2023-08-12T20:42:59.866Z,1.83
2023-08-12T20:45:28.034Z,1.65
2023-08-12T20:47:56.418Z,2.45
2023-08-12T20:50:24.799Z,2.53
2023-08-12T20:52:53.101Z,3.58
2023-08-12T20:55:21.499Z,2.00
2023-08-12T20:57:49.769Z,2.12
2023-08-12T21:00:18.436Z,2.45
2023-08-12T21:02:46.932Z,5.03
2023-08-12T21:05:15.482Z,2.37
2023-08-12T21:07:43.848Z,2.05
2023-08-12T21:10:13.200Z,2.20
2023-08-12T21:12:41.449Z,2.78
2023-08-12T21:15:10.976Z,2.30
2023-08-12T21:17:39.502Z,2.75
2023-08-12T21:20:08.413Z,4.43
2023-08-12T21:22:36.609Z,2.50
2023-08-12T21:25:05.618Z,1.52
2023-08-12T21:27:34.769Z,2.08
2023-08-12T21:30:03.257Z,2.05
2023-08-12T21:32:32.701Z,2.00
2023-08-12T21:35:01.532Z,3.35
2023-08-12T21:37:30.428Z,4.68
2023-08-12T21:39:58.880Z,2.42
2023-08-12T21:42:26.989Z,1.50
2023-08-12T21:44:55.329Z,1.62
2023-08-12T21:47:23.750Z,1.95
2023-08-12T21:49:51.814Z,2.87
2023-08-12T21:52:19.972Z,3.08
2023-08-12T21:54:48.705Z,7.65
2023-08-12T21:57:16.997Z,2.03
2023-08-12T21:59:45.608Z,2.30
2023-08-12T22:02:23.616Z,2.75
2023-08-12T22:04:52.358Z,1.77
2023-08-12T22:07:21.072Z,1.95
2023-08-12T22:09:49.044Z,2.00
2023-08-12T22:12:17.316Z,2.75
2023-08-12T22:14:45.533Z,3.25
2023-08-12T22:17:13.777Z,2.17
2023-08-12T22:19:42.251Z,3.03
2023-08-12T22:22:19.177Z,3.58
2023-08-12T22:24:49.032Z,4.47
2023-08-12T22:27:17.233Z,3.58
2023-08-12T22:29:45.362Z,3.00
2023-08-12T22:32:14.267Z,3.75
2023-08-12T22:34:42.579Z,2.95
2023-08-12T22:37:11.121Z,2.12
2023-08-12T22:39:39.812Z,2.78
2023-08-12T22:42:08.033Z,2.15
2023-08-12T22:44:36.139Z,1.90
2023-08-12T22:47:04.929Z,2.87
2023-08-12T22:49:33.053Z,6.87
2023-08-12T22:52:01.120Z,2.80
2023-08-12T22:54:29.590Z,1.40
2023-08-12T22:56:57.913Z,1.70
2023-08-12T22:59:26.202Z,2.20
2023-08-12T23:01:54.669Z,2.55
2023-08-12T23:04:22.820Z,2.10
2023-08-12T23:06:50.932Z,1.87
2023-08-12T23:09:19.816Z,2.87
2023-08-12T23:11:47.956Z,2.60
2023-08-12T23:14:15.990Z,1.70
2023-08-12T23:16:44.530Z,4.78
2023-08-12T23:19:12.870Z,1.65
2023-08-12T23:21:40.940Z,2.42
2023-08-12T23:24:09.458Z,2.10
2023-08-12T23:26:38.258Z,4.35
2023-08-12T23:29:07.058Z,3.28
2023-08-12T23:31:35.515Z,2.47
2023-08-12T23:34:03.715Z,3.33
2023-08-12T23:36:34.615Z,1.90
2023-08-12T23:39:04.690Z,3.37
2023-08-12T23:41:33.113Z,2.47
2023-08-12T23:44:01.536Z,2.45
2023-08-12T23:46:30.049Z,2.22
2023-08-12T23:48:58.050Z,1.73
2023-08-12T23:51:26.129Z,2.45
2023-08-12T23:53:54.852Z,2.58
2023-08-12T23:56:22.924Z,2.30
2023-08-12T23:58:51.035Z,2.15
